sensor_id;sensor_type;location;lat;lon;timestamp;P1;durP1;ratioP1;P2;durP2;ratioP2
42964;SDS011;28604;51.204;22.552;2022-10-31T00:00:04;18.52;;;14.35;;
42964;SDS011;28604;51.204;22.552;2022-10-31T00:02:56;36.65;;;16.63;;
42964;SDS011;28604;51.204;22.552;2022-10-31T00:05:22;34.20;;;15.40;;
42964;SDS011;28604;51.204;22.552;2022-10-31T00:07:51;29.80;;;18.05;;
42964;SDS011;28604;51.204;22.552;2022-10-31T00:10:17;17.90;;;14.77;;
42964;SDS011;28604;51.204;22.552;2022-10-31T00:12:44;16.92;;;15.02;;
42964;SDS011;28604;51.204;22.552;2022-10-31T00:15:09;23.80;;;17.70;;
42964;SDS011;28604;51.204;22.552;2022-10-31T00:17:35;27.55;;;17.52;;
42964;SDS011;28604;51.204;22.552;2022-10-31T00:20:01;19.95;;;15.38;;
42964;SDS011;28604;51.204;22.552;2022-10-31T00:22:28;21.83;;;16.58;;
42964;SDS011;28604;51.204;22.552;2022-10-31T00:24:53;26.33;;;16.15;;
42964;SDS011;28604;51.204;22.552;2022-10-31T00:27:19;20.30;;;17.13;;
42964;SDS011;28604;51.204;22.552;2022-10-31T00:29:45;20.65;;;15.63;;
42964;SDS011;28604;51.204;22.552;2022-10-31T00:32:12;22.85;;;15.88;;
42964;SDS011;28604;51.204;22.552;2022-10-31T00:34:37;17.52;;;14.77;;
42964;SDS011;28604;51.204;22.552;2022-10-31T00:37:03;20.48;;;16.00;;
42964;SDS011;28604;51.204;22.552;2022-10-31T00:39:29;17.83;;;15.05;;
42964;SDS011;28604;51.204;22.552;2022-10-31T00:41:55;18.20;;;14.77;;
42964;SDS011;28604;51.204;22.552;2022-10-31T00:44:21;18.40;;;15.55;;
42964;SDS011;28604;51.204;22.552;2022-10-31T00:46:47;13.73;;;12.18;;
42964;SDS011;28604;51.204;22.552;2022-10-31T00:49:13;14.73;;;12.25;;
42964;SDS011;28604;51.204;22.552;2022-10-31T00:51:39;20.02;;;13.45;;
42964;SDS011;28604;51.204;22.552;2022-10-31T00:54:05;15.25;;;13.55;;
42964;SDS011;28604;51.204;22.552;2022-10-31T00:56:31;14.23;;;12.77;;
42964;SDS011;28604;51.204;22.552;2022-10-31T00:58:58;15.18;;;13.43;;
42964;SDS011;28604;51.204;22.552;2022-10-31T01:01:24;15.25;;;13.00;;
42964;SDS011;28604;51.204;22.552;2022-10-31T01:03:50;14.52;;;11.43;;
42964;SDS011;28604;51.204;22.552;2022-10-31T01:06:16;14.13;;;12.73;;
42964;SDS011;28604;51.204;22.552;2022-10-31T01:08:42;17.13;;;15.32;;
42964;SDS011;28604;51.204;22.552;2022-10-31T01:11:15;14.60;;;12.63;;
42964;SDS011;28604;51.204;22.552;2022-10-31T01:13:44;18.48;;;13.70;;
42964;SDS011;28604;51.204;22.552;2022-10-31T01:16:11;42.45;;;15.70;;
42964;SDS011;28604;51.204;22.552;2022-10-31T01:18:39;48.55;;;15.88;;
42964;SDS011;28604;51.204;22.552;2022-10-31T01:23:40;13.55;;;12.07;;
42964;SDS011;28604;51.204;22.552;2022-10-31T01:26:13;16.92;;;13.52;;
42964;SDS011;28604;51.204;22.552;2022-10-31T01:31:12;26.23;;;15.00;;
42964;SDS011;28604;51.204;22.552;2022-10-31T01:33:38;30.77;;;16.35;;
42964;SDS011;28604;51.204;22.552;2022-10-31T01:36:12;18.00;;;13.95;;
42964;SDS011;28604;51.204;22.552;2022-10-31T01:38:48;19.75;;;16.23;;
42964;SDS011;28604;51.204;22.552;2022-10-31T01:41:17;24.15;;;17.63;;
42964;SDS011;28604;51.204;22.552;2022-10-31T01:46:22;21.48;;;18.05;;
42964;SDS011;28604;51.204;22.552;2022-10-31T01:49:09;26.88;;;17.88;;
42964;SDS011;28604;51.204;22.552;2022-10-31T01:51:45;30.10;;;18.23;;
42964;SDS011;28604;51.204;22.552;2022-10-31T01:54:17;21.85;;;17.10;;
42964;SDS011;28604;51.204;22.552;2022-10-31T01:56:51;24.35;;;18.77;;
42964;SDS011;28604;51.204;22.552;2022-10-31T01:59:20;21.25;;;17.67;;
42964;SDS011;28604;51.204;22.552;2022-10-31T02:01:47;30.88;;;19.02;;
42964;SDS011;28604;51.204;22.552;2022-10-31T02:04:15;19.17;;;15.80;;
42964;SDS011;28604;51.204;22.552;2022-10-31T02:06:46;21.63;;;15.38;;
42964;SDS011;28604;51.204;22.552;2022-10-31T02:09:17;17.40;;;15.05;;
42964;SDS011;28604;51.204;22.552;2022-10-31T02:11:52;19.17;;;14.63;;
42964;SDS011;28604;51.204;22.552;2022-10-31T02:14:21;14.70;;;13.07;;
42964;SDS011;28604;51.204;22.552;2022-10-31T02:16:50;18.08;;;13.52;;
42964;SDS011;28604;51.204;22.552;2022-10-31T02:19:18;23.13;;;15.63;;
42964;SDS011;28604;51.204;22.552;2022-10-31T02:21:54;17.65;;;15.73;;
42964;SDS011;28604;51.204;22.552;2022-10-31T02:36:03;26.15;;;17.25;;
42964;SDS011;28604;51.204;22.552;2022-10-31T02:38:52;20.02;;;15.82;;
42964;SDS011;28604;51.204;22.552;2022-10-31T02:47:40;17.85;;;14.02;;
42964;SDS011;28604;51.204;22.552;2022-10-31T02:50:10;16.67;;;14.00;;
42964;SDS011;28604;51.204;22.552;2022-10-31T02:52:43;20.75;;;15.88;;
42964;SDS011;28604;51.204;22.552;2022-10-31T02:55:10;20.08;;;15.50;;
42964;SDS011;28604;51.204;22.552;2022-10-31T02:57:57;14.48;;;12.77;;
42964;SDS011;28604;51.204;22.552;2022-10-31T03:00:34;17.75;;;13.05;;
42964;SDS011;28604;51.204;22.552;2022-10-31T03:03:11;16.88;;;14.35;;
42964;SDS011;28604;51.204;22.552;2022-10-31T03:11:32;14.35;;;12.85;;
42964;SDS011;28604;51.204;22.552;2022-10-31T03:14:28;18.70;;;14.15;;
42964;SDS011;28604;51.204;22.552;2022-10-31T03:17:04;16.50;;;14.20;;
42964;SDS011;28604;51.204;22.552;2022-10-31T03:19:40;16.33;;;13.80;;
42964;SDS011;28604;51.204;22.552;2022-10-31T03:24:44;17.15;;;14.25;;
42964;SDS011;28604;51.204;22.552;2022-10-31T03:27:15;14.93;;;12.77;;
42964;SDS011;28604;51.204;22.552;2022-10-31T03:29:45;18.17;;;14.20;;
42964;SDS011;28604;51.204;22.552;2022-10-31T03:32:19;24.08;;;17.88;;
42964;SDS011;28604;51.204;22.552;2022-10-31T03:34:50;19.85;;;17.40;;
42964;SDS011;28604;51.204;22.552;2022-10-31T03:37:19;20.63;;;16.70;;
42964;SDS011;28604;51.204;22.552;2022-10-31T03:39:47;18.02;;;13.35;;
42964;SDS011;28604;51.204;22.552;2022-10-31T03:42:15;16.92;;;14.98;;
42964;SDS011;28604;51.204;22.552;2022-10-31T03:45:04;22.17;;;16.15;;
42964;SDS011;28604;51.204;22.552;2022-10-31T03:47:32;34.10;;;16.30;;
42964;SDS011;28604;51.204;22.552;2022-10-31T03:50:00;31.55;;;15.00;;
42964;SDS011;28604;51.204;22.552;2022-10-31T03:58:06;14.00;;;12.35;;
42964;SDS011;28604;51.204;22.552;2022-10-31T04:00:38;15.63;;;13.32;;
42964;SDS011;28604;51.204;22.552;2022-10-31T04:03:11;16.70;;;14.10;;
42964;SDS011;28604;51.204;22.552;2022-10-31T04:05:52;17.92;;;12.95;;
42964;SDS011;28604;51.204;22.552;2022-10-31T04:08:26;15.82;;;13.05;;
42964;SDS011;28604;51.204;22.552;2022-10-31T04:10:56;15.05;;;12.35;;
42964;SDS011;28604;51.204;22.552;2022-10-31T04:13:29;14.65;;;11.77;;
42964;SDS011;28604;51.204;22.552;2022-10-31T04:16:04;15.98;;;12.20;;
42964;SDS011;28604;51.204;22.552;2022-10-31T04:18:32;13.82;;;11.55;;
42964;SDS011;28604;51.204;22.552;2022-10-31T04:21:02;13.35;;;11.18;;
42964;SDS011;28604;51.204;22.552;2022-10-31T04:23:32;14.68;;;10.85;;
42964;SDS011;28604;51.204;22.552;2022-10-31T04:26:07;17.80;;;11.00;;
42964;SDS011;28604;51.204;22.552;2022-10-31T04:28:37;13.20;;;10.40;;
42964;SDS011;28604;51.204;22.552;2022-10-31T04:31:03;14.38;;;9.80;;
42964;SDS011;28604;51.204;22.552;2022-10-31T04:33:29;14.30;;;10.13;;
42964;SDS011;28604;51.204;22.552;2022-10-31T04:35:55;10.93;;;9.10;;
42964;SDS011;28604;51.204;22.552;2022-10-31T04:38:21;14.65;;;10.70;;
42964;SDS011;28604;51.204;22.552;2022-10-31T04:40:48;11.63;;;10.10;;
42964;SDS011;28604;51.204;22.552;2022-10-31T04:43:14;13.07;;;11.15;;
42964;SDS011;28604;51.204;22.552;2022-10-31T04:45:42;23.55;;;13.10;;
42964;SDS011;28604;51.204;22.552;2022-10-31T04:48:09;11.85;;;10.18;;
42964;SDS011;28604;51.204;22.552;2022-10-31T04:50:38;15.93;;;12.40;;
42964;SDS011;28604;51.204;22.552;2022-10-31T04:53:04;13.50;;;11.60;;
42964;SDS011;28604;51.204;22.552;2022-10-31T04:55:37;14.35;;;11.68;;
42964;SDS011;28604;51.204;22.552;2022-10-31T04:58:17;15.00;;;10.80;;
42964;SDS011;28604;51.204;22.552;2022-10-31T05:00:43;12.80;;;10.13;;
42964;SDS011;28604;51.204;22.552;2022-10-31T05:03:09;11.88;;;10.18;;
42964;SDS011;28604;51.204;22.552;2022-10-31T05:05:35;9.48;;;8.50;;
42964;SDS011;28604;51.204;22.552;2022-10-31T05:08:03;9.63;;;8.30;;
42964;SDS011;28604;51.204;22.552;2022-10-31T05:10:30;8.43;;;7.70;;
42964;SDS011;28604;51.204;22.552;2022-10-31T05:12:59;17.60;;;9.02;;
42964;SDS011;28604;51.204;22.552;2022-10-31T05:15:45;15.43;;;8.63;;
42964;SDS011;28604;51.204;22.552;2022-10-31T05:18:16;8.63;;;7.03;;
42964;SDS011;28604;51.204;22.552;2022-10-31T05:20:54;11.38;;;7.20;;
42964;SDS011;28604;51.204;22.552;2022-10-31T05:23:34;8.05;;;7.30;;
42964;SDS011;28604;51.204;22.552;2022-10-31T05:25:59;12.43;;;8.57;;
42964;SDS011;28604;51.204;22.552;2022-10-31T05:28:26;8.98;;;7.45;;
42964;SDS011;28604;51.204;22.552;2022-10-31T05:30:52;8.60;;;7.65;;
42964;SDS011;28604;51.204;22.552;2022-10-31T05:33:19;7.95;;;7.25;;
42964;SDS011;28604;51.204;22.552;2022-10-31T05:36:11;9.48;;;7.65;;
42964;SDS011;28604;51.204;22.552;2022-10-31T05:38:55;8.93;;;7.57;;
42964;SDS011;28604;51.204;22.552;2022-10-31T05:41:27;11.57;;;8.15;;
42964;SDS011;28604;51.204;22.552;2022-10-31T05:44:02;9.45;;;8.65;;
42964;SDS011;28604;51.204;22.552;2022-10-31T05:46:31;11.30;;;10.10;;
42964;SDS011;28604;51.204;22.552;2022-10-31T05:49:32;14.48;;;9.65;;
42964;SDS011;28604;51.204;22.552;2022-10-31T05:52:24;14.32;;;11.35;;
42964;SDS011;28604;51.204;22.552;2022-10-31T05:54:58;11.43;;;9.75;;
42964;SDS011;28604;51.204;22.552;2022-10-31T05:57:24;9.80;;;8.70;;
42964;SDS011;28604;51.204;22.552;2022-10-31T05:59:51;13.77;;;10.55;;
42964;SDS011;28604;51.204;22.552;2022-10-31T06:02:21;14.38;;;11.65;;
42964;SDS011;28604;51.204;22.552;2022-10-31T06:05:13;13.40;;;11.48;;
42964;SDS011;28604;51.204;22.552;2022-10-31T06:07:40;16.45;;;10.95;;
42964;SDS011;28604;51.204;22.552;2022-10-31T06:10:07;11.80;;;10.32;;
42964;SDS011;28604;51.204;22.552;2022-10-31T06:12:34;13.38;;;10.00;;
42964;SDS011;28604;51.204;22.552;2022-10-31T06:15:29;10.77;;;9.68;;
42964;SDS011;28604;51.204;22.552;2022-10-31T06:18:02;11.00;;;9.05;;
42964;SDS011;28604;51.204;22.552;2022-10-31T06:20:33;12.65;;;10.63;;
42964;SDS011;28604;51.204;22.552;2022-10-31T06:23:02;10.27;;;9.27;;
42964;SDS011;28604;51.204;22.552;2022-10-31T06:25:31;12.13;;;9.70;;
42964;SDS011;28604;51.204;22.552;2022-10-31T06:27:58;10.57;;;9.45;;
42964;SDS011;28604;51.204;22.552;2022-10-31T06:30:32;12.20;;;9.50;;
42964;SDS011;28604;51.204;22.552;2022-10-31T06:33:02;12.23;;;8.10;;
42964;SDS011;28604;51.204;22.552;2022-10-31T06:35:34;8.93;;;7.90;;
42964;SDS011;28604;51.204;22.552;2022-10-31T06:38:00;8.77;;;7.22;;
42964;SDS011;28604;51.204;22.552;2022-10-31T06:40:33;8.95;;;8.05;;
42964;SDS011;28604;51.204;22.552;2022-10-31T06:43:15;13.18;;;8.63;;
42964;SDS011;28604;51.204;22.552;2022-10-31T06:45:41;8.02;;;7.22;;
42964;SDS011;28604;51.204;22.552;2022-10-31T06:48:13;11.33;;;8.00;;
42964;SDS011;28604;51.204;22.552;2022-10-31T06:51:00;7.72;;;6.72;;
42964;SDS011;28604;51.204;22.552;2022-10-31T06:53:26;7.25;;;6.55;;
42964;SDS011;28604;51.204;22.552;2022-10-31T06:55:55;7.53;;;6.78;;
42964;SDS011;28604;51.204;22.552;2022-10-31T06:58:29;8.18;;;6.70;;
42964;SDS011;28604;51.204;22.552;2022-10-31T07:01:00;6.78;;;5.93;;
42964;SDS011;28604;51.204;22.552;2022-10-31T07:03:26;7.50;;;6.05;;
42964;SDS011;28604;51.204;22.552;2022-10-31T07:05:54;8.68;;;6.95;;
42964;SDS011;28604;51.204;22.552;2022-10-31T07:08:21;7.47;;;6.75;;
42964;SDS011;28604;51.204;22.552;2022-10-31T07:10:56;6.63;;;5.95;;
42964;SDS011;28604;51.204;22.552;2022-10-31T07:13:23;8.68;;;6.90;;
42964;SDS011;28604;51.204;22.552;2022-10-31T07:15:55;7.05;;;6.22;;
42964;SDS011;28604;51.204;22.552;2022-10-31T07:18:25;7.60;;;6.32;;
42964;SDS011;28604;51.204;22.552;2022-10-31T07:20:52;8.60;;;6.38;;
42964;SDS011;28604;51.204;22.552;2022-10-31T07:23:19;8.27;;;6.20;;
42964;SDS011;28604;51.204;22.552;2022-10-31T07:26:02;11.60;;;7.85;;
42964;SDS011;28604;51.204;22.552;2022-10-31T07:28:38;10.13;;;6.82;;
42964;SDS011;28604;51.204;22.552;2022-10-31T07:31:05;7.80;;;6.82;;
42964;SDS011;28604;51.204;22.552;2022-10-31T07:33:31;8.93;;;8.02;;
42964;SDS011;28604;51.204;22.552;2022-10-31T07:36:17;7.65;;;6.95;;
42964;SDS011;28604;51.204;22.552;2022-10-31T07:38:44;8.23;;;6.47;;
42964;SDS011;28604;51.204;22.552;2022-10-31T07:41:13;7.10;;;6.50;;
42964;SDS011;28604;51.204;22.552;2022-10-31T07:43:42;8.88;;;6.68;;
42964;SDS011;28604;51.204;22.552;2022-10-31T07:46:28;6.22;;;5.72;;
42964;SDS011;28604;51.204;22.552;2022-10-31T07:49:13;10.98;;;7.15;;
42964;SDS011;28604;51.204;22.552;2022-10-31T07:51:57;6.90;;;6.20;;
42964;SDS011;28604;51.204;22.552;2022-10-31T07:54:38;6.45;;;5.85;;
42964;SDS011;28604;51.204;22.552;2022-10-31T07:57:07;8.02;;;6.60;;
42964;SDS011;28604;51.204;22.552;2022-10-31T07:59:33;7.40;;;6.70;;
42964;SDS011;28604;51.204;22.552;2022-10-31T08:01:59;8.43;;;7.47;;
42964;SDS011;28604;51.204;22.552;2022-10-31T08:04:34;8.13;;;6.95;;
42964;SDS011;28604;51.204;22.552;2022-10-31T08:07:19;7.45;;;6.15;;
42964;SDS011;28604;51.204;22.552;2022-10-31T08:09:52;7.68;;;6.97;;
42964;SDS011;28604;51.204;22.552;2022-10-31T08:12:23;6.25;;;5.65;;
42964;SDS011;28604;51.204;22.552;2022-10-31T08:14:48;7.32;;;6.63;;
42964;SDS011;28604;51.204;22.552;2022-10-31T08:17:17;8.18;;;7.38;;
42964;SDS011;28604;51.204;22.552;2022-10-31T08:19:52;8.38;;;7.47;;
42964;SDS011;28604;51.204;22.552;2022-10-31T08:22:22;8.15;;;7.28;;
42964;SDS011;28604;51.204;22.552;2022-10-31T08:24:48;7.40;;;6.70;;
42964;SDS011;28604;51.204;22.552;2022-10-31T08:27:14;8.02;;;7.22;;
42964;SDS011;28604;51.204;22.552;2022-10-31T08:29:41;8.80;;;7.90;;
42964;SDS011;28604;51.204;22.552;2022-10-31T08:32:07;7.28;;;6.68;;
42964;SDS011;28604;51.204;22.552;2022-10-31T08:34:51;8.27;;;7.47;;
42964;SDS011;28604;51.204;22.552;2022-10-31T08:37:35;7.65;;;6.95;;
42964;SDS011;28604;51.204;22.552;2022-10-31T08:40:03;7.57;;;6.88;;
42964;SDS011;28604;51.204;22.552;2022-10-31T08:42:33;7.93;;;7.13;;
42964;SDS011;28604;51.204;22.552;2022-10-31T08:45:00;7.53;;;6.78;;
42964;SDS011;28604;51.204;22.552;2022-10-31T08:47:26;9.38;;;7.22;;
42964;SDS011;28604;51.204;22.552;2022-10-31T08:49:53;9.52;;;7.10;;
42964;SDS011;28604;51.204;22.552;2022-10-31T08:52:22;7.28;;;6.57;;
42964;SDS011;28604;51.204;22.552;2022-10-31T08:54:50;8.00;;;7.20;;
42964;SDS011;28604;51.204;22.552;2022-10-31T08:57:39;7.95;;;6.72;;
42964;SDS011;28604;51.204;22.552;2022-10-31T09:00:06;21.48;;;7.63;;
42964;SDS011;28604;51.204;22.552;2022-10-31T09:02:58;16.17;;;8.20;;
42964;SDS011;28604;51.204;22.552;2022-10-31T09:05:28;7.25;;;6.65;;
42964;SDS011;28604;51.204;22.552;2022-10-31T09:07:56;8.70;;;7.10;;
42964;SDS011;28604;51.204;22.552;2022-10-31T09:10:24;8.07;;;7.28;;
42964;SDS011;28604;51.204;22.552;2022-10-31T09:13:02;6.97;;;6.38;;
42964;SDS011;28604;51.204;22.552;2022-10-31T09:15:55;9.93;;;7.70;;
42964;SDS011;28604;51.204;22.552;2022-10-31T09:18:24;8.63;;;7.80;;
42964;SDS011;28604;51.204;22.552;2022-10-31T09:20:57;12.05;;;8.20;;
42964;SDS011;28604;51.204;22.552;2022-10-31T09:23:27;11.85;;;7.32;;
42964;SDS011;28604;51.204;22.552;2022-10-31T09:25:54;9.32;;;8.30;;
42964;SDS011;28604;51.204;22.552;2022-10-31T09:28:35;9.40;;;8.57;;
42964;SDS011;28604;51.204;22.552;2022-10-31T09:31:06;11.18;;;8.90;;
42964;SDS011;28604;51.204;22.552;2022-10-31T09:33:49;10.20;;;9.20;;
42964;SDS011;28604;51.204;22.552;2022-10-31T09:36:34;12.02;;;9.25;;
42964;SDS011;28604;51.204;22.552;2022-10-31T09:39:03;13.75;;;10.77;;
42964;SDS011;28604;51.204;22.552;2022-10-31T09:44:26;13.05;;;10.40;;
42964;SDS011;28604;51.204;22.552;2022-10-31T09:50:18;15.70;;;10.50;;
42964;SDS011;28604;51.204;22.552;2022-10-31T09:52:54;15.90;;;11.68;;
42964;SDS011;28604;51.204;22.552;2022-10-31T09:55:44;11.43;;;10.23;;
42964;SDS011;28604;51.204;22.552;2022-10-31T09:58:31;13.57;;;9.98;;
42964;SDS011;28604;51.204;22.552;2022-10-31T10:01:00;10.48;;;9.43;;
42964;SDS011;28604;51.204;22.552;2022-10-31T10:06:25;11.18;;;8.95;;
42964;SDS011;28604;51.204;22.552;2022-10-31T10:09:26;10.47;;;9.10;;
42964;SDS011;28604;51.204;22.552;2022-10-31T10:17:54;9.90;;;8.07;;
42964;SDS011;28604;51.204;22.552;2022-10-31T10:21:09;9.02;;;7.97;;
42964;SDS011;28604;51.204;22.552;2022-10-31T10:23:35;9.15;;;8.07;;
42964;SDS011;28604;51.204;22.552;2022-10-31T10:26:18;9.77;;;6.65;;
42964;SDS011;28604;51.204;22.552;2022-10-31T10:28:47;8.77;;;6.78;;
42964;SDS011;28604;51.204;22.552;2022-10-31T10:31:18;8.52;;;7.35;;
42964;SDS011;28604;51.204;22.552;2022-10-31T10:33:54;6.65;;;6.05;;
42964;SDS011;28604;51.204;22.552;2022-10-31T10:41:27;9.15;;;7.60;;
42964;SDS011;28604;51.204;22.552;2022-10-31T10:43:56;8.47;;;7.57;;
42964;SDS011;28604;51.204;22.552;2022-10-31T10:49:18;12.70;;;8.15;;
42964;SDS011;28604;51.204;22.552;2022-10-31T10:54:46;8.55;;;7.32;;
42964;SDS011;28604;51.204;22.552;2022-10-31T10:59:55;14.73;;;7.85;;
42964;SDS011;28604;51.204;22.552;2022-10-31T11:02:25;12.52;;;7.93;;
42964;SDS011;28604;51.204;22.552;2022-10-31T11:04:54;14.23;;;8.15;;
42964;SDS011;28604;51.204;22.552;2022-10-31T11:07:23;14.68;;;9.95;;
42964;SDS011;28604;51.204;22.552;2022-10-31T11:09:49;12.20;;;9.15;;
42964;SDS011;28604;51.204;22.552;2022-10-31T11:12:26;19.27;;;10.05;;
42964;SDS011;28604;51.204;22.552;2022-10-31T11:14:56;10.05;;;9.02;;
42964;SDS011;28604;51.204;22.552;2022-10-31T11:17:30;13.80;;;10.20;;
42964;SDS011;28604;51.204;22.552;2022-10-31T11:20:03;12.77;;;8.43;;
42964;SDS011;28604;51.204;22.552;2022-10-31T11:22:31;14.32;;;5.50;;
42964;SDS011;28604;51.204;22.552;2022-10-31T11:24:57;7.95;;;5.50;;
42964;SDS011;28604;51.204;22.552;2022-10-31T11:27:24;7.85;;;5.22;;
42964;SDS011;28604;51.204;22.552;2022-10-31T11:29:51;4.97;;;4.50;;
42964;SDS011;28604;51.204;22.552;2022-10-31T11:32:21;4.50;;;3.65;;
42964;SDS011;28604;51.204;22.552;2022-10-31T11:34:58;4.35;;;3.65;;
42964;SDS011;28604;51.204;22.552;2022-10-31T11:37:31;5.47;;;4.97;;
42964;SDS011;28604;51.204;22.552;2022-10-31T11:40:02;4.88;;;4.45;;
42964;SDS011;28604;51.204;22.552;2022-10-31T11:42:38;6.22;;;5.57;;
42964;SDS011;28604;51.204;22.552;2022-10-31T11:45:07;5.43;;;4.53;;
42964;SDS011;28604;51.204;22.552;2022-10-31T11:47:47;13.68;;;9.55;;
42964;SDS011;28604;51.204;22.552;2022-10-31T11:50:19;13.23;;;10.15;;
42964;SDS011;28604;51.204;22.552;2022-10-31T11:52:50;18.20;;;11.73;;
42964;SDS011;28604;51.204;22.552;2022-10-31T11:55:37;15.48;;;11.38;;
42964;SDS011;28604;51.204;22.552;2022-10-31T11:58:04;14.35;;;9.98;;
42964;SDS011;28604;51.204;22.552;2022-10-31T12:00:48;10.50;;;8.75;;
42964;SDS011;28604;51.204;22.552;2022-10-31T12:05:49;16.90;;;10.97;;
42964;SDS011;28604;51.204;22.552;2022-10-31T12:08:17;15.50;;;11.38;;
42964;SDS011;28604;51.204;22.552;2022-10-31T12:16:25;16.75;;;12.15;;
42964;SDS011;28604;51.204;22.552;2022-10-31T12:19:05;18.75;;;13.32;;
42964;SDS011;28604;51.204;22.552;2022-10-31T12:29:49;22.95;;;17.17;;
42964;SDS011;28604;51.204;22.552;2022-10-31T12:49:39;25.88;;;17.42;;
42964;SDS011;28604;51.204;22.552;2022-10-31T12:58:05;26.83;;;17.43;;
42964;SDS011;28604;51.204;22.552;2022-10-31T13:00:37;23.42;;;16.48;;
42964;SDS011;28604;51.204;22.552;2022-10-31T13:03:19;20.35;;;15.38;;
42964;SDS011;28604;51.204;22.552;2022-10-31T13:06:01;21.95;;;15.32;;
42964;SDS011;28604;51.204;22.552;2022-10-31T13:08:38;21.70;;;15.50;;
42964;SDS011;28604;51.204;22.552;2022-10-31T13:11:30;20.75;;;15.35;;
42964;SDS011;28604;51.204;22.552;2022-10-31T13:14:05;26.58;;;17.63;;
42964;SDS011;28604;51.204;22.552;2022-10-31T13:16:39;31.13;;;18.83;;
42964;SDS011;28604;51.204;22.552;2022-10-31T13:19:18;29.27;;;17.58;;
42964;SDS011;28604;51.204;22.552;2022-10-31T13:24:37;29.85;;;17.73;;
42964;SDS011;28604;51.204;22.552;2022-10-31T13:27:22;28.75;;;16.02;;
42964;SDS011;28604;51.204;22.552;2022-10-31T13:30:14;23.52;;;16.25;;
42964;SDS011;28604;51.204;22.552;2022-10-31T13:32:49;29.17;;;17.17;;
42964;SDS011;28604;51.204;22.552;2022-10-31T13:38:23;27.17;;;16.60;;
42964;SDS011;28604;51.204;22.552;2022-10-31T13:41:39;24.83;;;15.70;;
42964;SDS011;28604;51.204;22.552;2022-10-31T13:46:35;27.40;;;15.07;;
42964;SDS011;28604;51.204;22.552;2022-10-31T13:49:03;24.35;;;15.15;;
42964;SDS011;28604;51.204;22.552;2022-10-31T13:51:30;25.30;;;15.68;;
42964;SDS011;28604;51.204;22.552;2022-10-31T13:54:00;26.35;;;15.93;;
42964;SDS011;28604;51.204;22.552;2022-10-31T13:56:32;30.15;;;15.70;;
42964;SDS011;28604;51.204;22.552;2022-10-31T14:01:34;30.25;;;18.15;;
42964;SDS011;28604;51.204;22.552;2022-10-31T14:04:13;33.33;;;19.23;;
42964;SDS011;28604;51.204;22.552;2022-10-31T14:09:24;36.40;;;20.90;;
42964;SDS011;28604;51.204;22.552;2022-10-31T14:15:05;37.05;;;19.30;;
42964;SDS011;28604;51.204;22.552;2022-10-31T14:22:43;30.38;;;17.67;;
42964;SDS011;28604;51.204;22.552;2022-10-31T14:28:21;30.77;;;18.63;;
42964;SDS011;28604;51.204;22.552;2022-10-31T14:30:57;29.20;;;18.63;;
42964;SDS011;28604;51.204;22.552;2022-10-31T14:33:25;28.25;;;19.73;;
42964;SDS011;28604;51.204;22.552;2022-10-31T14:43:47;33.13;;;21.20;;
42964;SDS011;28604;51.204;22.552;2022-10-31T14:49:32;42.28;;;25.05;;
42964;SDS011;28604;51.204;22.552;2022-10-31T14:52:21;41.85;;;27.05;;
42964;SDS011;28604;51.204;22.552;2022-10-31T14:54:53;42.22;;;25.15;;
42964;SDS011;28604;51.204;22.552;2022-10-31T14:57:24;44.35;;;26.50;;
42964;SDS011;28604;51.204;22.552;2022-10-31T14:59:57;40.65;;;22.20;;
42964;SDS011;28604;51.204;22.552;2022-10-31T15:02:32;36.78;;;22.15;;
42964;SDS011;28604;51.204;22.552;2022-10-31T15:05:08;33.03;;;22.08;;
42964;SDS011;28604;51.204;22.552;2022-10-31T15:07:35;46.85;;;25.38;;
42964;SDS011;28604;51.204;22.552;2022-10-31T15:10:06;40.72;;;23.95;;
42964;SDS011;28604;51.204;22.552;2022-10-31T15:13:10;35.92;;;22.30;;
42964;SDS011;28604;51.204;22.552;2022-10-31T15:15:44;32.45;;;20.42;;
42964;SDS011;28604;51.204;22.552;2022-10-31T15:18:19;29.20;;;18.85;;
42964;SDS011;28604;51.204;22.552;2022-10-31T15:20:51;32.85;;;20.33;;
42964;SDS011;28604;51.204;22.552;2022-10-31T15:23:21;33.95;;;21.23;;
42964;SDS011;28604;51.204;22.552;2022-10-31T15:25:50;31.52;;;19.17;;
42964;SDS011;28604;51.204;22.552;2022-10-31T15:28:24;29.58;;;17.10;;
42964;SDS011;28604;51.204;22.552;2022-10-31T15:30:56;33.80;;;18.83;;
42964;SDS011;28604;51.204;22.552;2022-10-31T15:33:39;26.17;;;16.38;;
42964;SDS011;28604;51.204;22.552;2022-10-31T15:36:17;25.83;;;18.00;;
42964;SDS011;28604;51.204;22.552;2022-10-31T15:38:48;24.63;;;16.83;;
42964;SDS011;28604;51.204;22.552;2022-10-31T15:41:34;32.00;;;21.83;;
42964;SDS011;28604;51.204;22.552;2022-10-31T15:44:14;27.00;;;18.15;;
42964;SDS011;28604;51.204;22.552;2022-10-31T15:46:51;36.97;;;21.00;;
42964;SDS011;28604;51.204;22.552;2022-10-31T15:49:34;32.70;;;21.25;;
42964;SDS011;28604;51.204;22.552;2022-10-31T15:52:03;29.27;;;20.35;;
42964;SDS011;28604;51.204;22.552;2022-10-31T15:54:51;38.35;;;23.48;;
42964;SDS011;28604;51.204;22.552;2022-10-31T15:57:21;33.10;;;21.95;;
42964;SDS011;28604;51.204;22.552;2022-10-31T15:59:48;36.95;;;22.67;;
42964;SDS011;28604;51.204;22.552;2022-10-31T16:02:18;34.00;;;23.30;;
42964;SDS011;28604;51.204;22.552;2022-10-31T16:04:50;33.30;;;20.67;;
42964;SDS011;28604;51.204;22.552;2022-10-31T16:07:24;38.63;;;22.75;;
42964;SDS011;28604;51.204;22.552;2022-10-31T16:10:00;36.22;;;22.27;;
42964;SDS011;28604;51.204;22.552;2022-10-31T16:12:44;34.85;;;21.85;;
42964;SDS011;28604;51.204;22.552;2022-10-31T16:15:13;32.08;;;20.65;;
42964;SDS011;28604;51.204;22.552;2022-10-31T16:17:41;33.90;;;22.08;;
42964;SDS011;28604;51.204;22.552;2022-10-31T16:20:21;30.63;;;20.65;;
42964;SDS011;28604;51.204;22.552;2022-10-31T16:22:51;33.28;;;21.65;;
42964;SDS011;28604;51.204;22.552;2022-10-31T16:25:35;45.50;;;27.35;;
42964;SDS011;28604;51.204;22.552;2022-10-31T16:28:03;54.63;;;24.48;;
42964;SDS011;28604;51.204;22.552;2022-10-31T16:38:14;39.65;;;23.75;;
42964;SDS011;28604;51.204;22.552;2022-10-31T16:40:39;84.47;;;24.80;;
42964;SDS011;28604;51.204;22.552;2022-10-31T16:43:12;48.17;;;22.33;;
42964;SDS011;28604;51.204;22.552;2022-10-31T16:45:43;54.72;;;24.25;;
42964;SDS011;28604;51.204;22.552;2022-10-31T16:48:12;35.47;;;21.25;;
42964;SDS011;28604;51.204;22.552;2022-10-31T16:50:40;35.60;;;19.45;;
42964;SDS011;28604;51.204;22.552;2022-10-31T16:53:09;33.85;;;19.35;;
42964;SDS011;28604;51.204;22.552;2022-10-31T16:58:30;46.58;;;21.83;;
42964;SDS011;28604;51.204;22.552;2022-10-31T17:01:02;25.10;;;17.85;;
42964;SDS011;28604;51.204;22.552;2022-10-31T17:03:30;28.27;;;20.15;;
42964;SDS011;28604;51.204;22.552;2022-10-31T17:05:56;41.40;;;20.48;;
42964;SDS011;28604;51.204;22.552;2022-10-31T17:08:23;29.10;;;18.80;;
42964;SDS011;28604;51.204;22.552;2022-10-31T17:10:53;41.58;;;20.25;;
42964;SDS011;28604;51.204;22.552;2022-10-31T17:13:25;40.35;;;21.23;;
42964;SDS011;28604;51.204;22.552;2022-10-31T17:15:58;40.65;;;22.83;;
42964;SDS011;28604;51.204;22.552;2022-10-31T17:18:25;56.58;;;27.05;;
42964;SDS011;28604;51.204;22.552;2022-10-31T17:20:54;112.65;;;31.67;;